Weeksbury, Kentucky
Current Conditions -  °F | °C
As of 9:55 AM on Tuesday 21 Oct 2014 (Local Time) from KPBX Reporting Station
Overcast Overcast  
Wind Chill: 51°   Ceiling: 700
Heat Index: 51°   Visibility: 10mi
Dew Point: 49°   Wind: 5mph
Humidity: 93%   Direction: 240°WSW
Pressure: 29.98"   Gusts: NA
Location:  37.33°N, 82.69°W
Report Text: KPBX 211355Z AUTO 24004KT 10SM OVC007 11/09 A2998 RMK AO2 T01050094
Loading
Personal Weather Stations






























Interactive Weather Map
Tropical Storm Tracking
New forecast layout! Learn more

10-Day Weather Forecast

Advertisements
Track Severe Weather on mobile